sensor_id;sensor_type;location;lat;lon;timestamp;temperature;humidity
25640;DHT22;13497;48.322;16.204;2022-10-22T00:01:11;10.60;99.90
25640;DHT22;13497;48.322;16.204;2022-10-22T00:03:37;10.60;99.90
25640;DHT22;13497;48.322;16.204;2022-10-22T00:06:03;10.60;99.90
25640;DHT22;13497;48.322;16.204;2022-10-22T00:08:29;10.70;99.90
25640;DHT22;13497;48.322;16.204;2022-10-22T00:10:55;10.70;99.90
25640;DHT22;13497;48.322;16.204;2022-10-22T00:13:21;10.80;99.90
25640;DHT22;13497;48.322;16.204;2022-10-22T00:15:46;10.90;99.90
25640;DHT22;13497;48.322;16.204;2022-10-22T00:18:12;10.90;99.90
25640;DHT22;13497;48.322;16.204;2022-10-22T00:20:38;11.00;99.90
25640;DHT22;13497;48.322;16.204;2022-10-22T00:23:03;11.10;99.90
25640;DHT22;13497;48.322;16.204;2022-10-22T00:25:29;11.10;99.90
25640;DHT22;13497;48.322;16.204;2022-10-22T00:27:55;11.10;99.90
25640;DHT22;13497;48.322;16.204;2022-10-22T00:30:20;11.20;99.90
25640;DHT22;13497;48.322;16.204;2022-10-22T00:32:46;11.10;99.90
25640;DHT22;13497;48.322;16.204;2022-10-22T00:35:12;11.10;99.90
25640;DHT22;13497;48.322;16.204;2022-10-22T00:37:37;11.00;99.90
25640;DHT22;13497;48.322;16.204;2022-10-22T00:40:04;11.10;99.90
25640;DHT22;13497;48.322;16.204;2022-10-22T00:42:29;11.20;99.90
25640;DHT22;13497;48.322;16.204;2022-10-22T00:45:06;11.20;99.90
25640;DHT22;13497;48.322;16.204;2022-10-22T00:47:53;11.20;99.90
25640;DHT22;13497;48.322;16.204;2022-10-22T00:52:57;11.10;99.90
25640;DHT22;13497;48.322;16.204;2022-10-22T00:55:25;11.20;99.90
25640;DHT22;13497;48.322;16.204;2022-10-22T00:57:54;11.20;99.90
25640;DHT22;13497;48.322;16.204;2022-10-22T01:00:21;11.20;99.90
25640;DHT22;13497;48.322;16.204;2022-10-22T01:02:49;11.20;99.90
25640;DHT22;13497;48.322;16.204;2022-10-22T01:05:15;11.20;99.90
25640;DHT22;13497;48.322;16.204;2022-10-22T01:07:47;11.10;99.90
25640;DHT22;13497;48.322;16.204;2022-10-22T01:21:36;10.70;99.90
25640;DHT22;13497;48.322;16.204;2022-10-22T01:27:14;10.50;99.90
25640;DHT22;13497;48.322;16.204;2022-10-22T01:29:49;10.40;99.90
25640;DHT22;13497;48.322;16.204;2022-10-22T01:32:19;10.40;99.90
25640;DHT22;13497;48.322;16.204;2022-10-22T01:34:52;10.30;99.90
25640;DHT22;13497;48.322;16.204;2022-10-22T01:37:21;10.20;99.90
25640;DHT22;13497;48.322;16.204;2022-10-22T01:39:48;10.20;99.90
25640;DHT22;13497;48.322;16.204;2022-10-22T01:42:14;10.30;99.90
25640;DHT22;13497;48.322;16.204;2022-10-22T01:44:40;10.20;99.90
25640;DHT22;13497;48.322;16.204;2022-10-22T01:47:13;10.20;99.90
25640;DHT22;13497;48.322;16.204;2022-10-22T01:52:38;10.20;99.90
25640;DHT22;13497;48.322;16.204;2022-10-22T01:55:30;10.30;99.90
25640;DHT22;13497;48.322;16.204;2022-10-22T02:00:49;10.50;99.90
25640;DHT22;13497;48.322;16.204;2022-10-22T02:03:24;10.40;99.90
25640;DHT22;13497;48.322;16.204;2022-10-22T02:05:54;10.40;99.90
25640;DHT22;13497;48.322;16.204;2022-10-22T02:08:23;10.20;99.90
25640;DHT22;13497;48.322;16.204;2022-10-22T02:10:50;10.20;99.90
25640;DHT22;13497;48.322;16.204;2022-10-22T02:13:22;10.20;99.90
25640;DHT22;13497;48.322;16.204;2022-10-22T02:15:50;10.30;99.90
25640;DHT22;13497;48.322;16.204;2022-10-22T02:18:19;10.30;99.90
25640;DHT22;13497;48.322;16.204;2022-10-22T02:20:47;10.30;99.90
25640;DHT22;13497;48.322;16.204;2022-10-22T02:23:14;10.30;99.90
25640;DHT22;13497;48.322;16.204;2022-10-22T02:25:42;10.30;99.90
25640;DHT22;13497;48.322;16.204;2022-10-22T02:28:28;10.30;99.90
25640;DHT22;13497;48.322;16.204;2022-10-22T02:31:03;10.10;99.90
25640;DHT22;13497;48.322;16.204;2022-10-22T02:33:35;10.00;99.90
25640;DHT22;13497;48.322;16.204;2022-10-22T02:36:02;10.00;99.90
25640;DHT22;13497;48.322;16.204;2022-10-22T02:38:30;10.10;99.90
25640;DHT22;13497;48.322;16.204;2022-10-22T02:40:56;10.10;99.90
25640;DHT22;13497;48.322;16.204;2022-10-22T02:43:24;10.20;99.90
25640;DHT22;13497;48.322;16.204;2022-10-22T02:45:50;10.20;99.90
25640;DHT22;13497;48.322;16.204;2022-10-22T02:48:16;10.30;99.90
25640;DHT22;13497;48.322;16.204;2022-10-22T02:50:41;10.20;99.90
25640;DHT22;13497;48.322;16.204;2022-10-22T02:53:07;10.10;99.90
25640;DHT22;13497;48.322;16.204;2022-10-22T02:55:32;10.10;99.90
25640;DHT22;13497;48.322;16.204;2022-10-22T02:57:58;10.10;99.90
25640;DHT22;13497;48.322;16.204;2022-10-22T03:00:24;10.10;99.90
25640;DHT22;13497;48.322;16.204;2022-10-22T03:02:50;10.20;99.90
25640;DHT22;13497;48.322;16.204;2022-10-22T03:05:15;10.00;99.90
25640;DHT22;13497;48.322;16.204;2022-10-22T03:07:41;9.90;99.90
25640;DHT22;13497;48.322;16.204;2022-10-22T03:10:07;9.90;99.90
25640;DHT22;13497;48.322;16.204;2022-10-22T03:12:33;10.00;99.90
25640;DHT22;13497;48.322;16.204;2022-10-22T03:14:58;9.90;99.90
25640;DHT22;13497;48.322;16.204;2022-10-22T03:17:24;9.80;99.90
25640;DHT22;13497;48.322;16.204;2022-10-22T03:19:49;9.80;99.90
25640;DHT22;13497;48.322;16.204;2022-10-22T03:22:24;9.80;99.90
25640;DHT22;13497;48.322;16.204;2022-10-22T03:24:53;9.80;99.90
25640;DHT22;13497;48.322;16.204;2022-10-22T03:27:21;9.80;99.90
25640;DHT22;13497;48.322;16.204;2022-10-22T03:29:49;9.80;99.90
25640;DHT22;13497;48.322;16.204;2022-10-22T03:32:15;9.90;99.90
25640;DHT22;13497;48.322;16.204;2022-10-22T03:34:41;9.90;99.90
25640;DHT22;13497;48.322;16.204;2022-10-22T03:37:07;9.90;99.90
25640;DHT22;13497;48.322;16.204;2022-10-22T03:39:34;9.70;99.90
25640;DHT22;13497;48.322;16.204;2022-10-22T03:42:00;9.60;99.90
25640;DHT22;13497;48.322;16.204;2022-10-22T03:44:26;9.50;99.90
25640;DHT22;13497;48.322;16.204;2022-10-22T03:46:52;9.30;99.90
25640;DHT22;13497;48.322;16.204;2022-10-22T03:49:18;9.20;99.90
25640;DHT22;13497;48.322;16.204;2022-10-22T03:51:44;9.20;99.90
25640;DHT22;13497;48.322;16.204;2022-10-22T03:54:09;9.20;99.90
25640;DHT22;13497;48.322;16.204;2022-10-22T03:56:35;9.40;99.90
25640;DHT22;13497;48.322;16.204;2022-10-22T03:59:01;9.40;99.90
25640;DHT22;13497;48.322;16.204;2022-10-22T04:01:28;9.60;99.90
25640;DHT22;13497;48.322;16.204;2022-10-22T04:03:55;9.70;99.90
25640;DHT22;13497;48.322;16.204;2022-10-22T04:06:21;9.70;99.90
25640;DHT22;13497;48.322;16.204;2022-10-22T04:08:47;9.60;99.90
25640;DHT22;13497;48.322;16.204;2022-10-22T04:11:14;9.60;99.90
25640;DHT22;13497;48.322;16.204;2022-10-22T04:13:40;9.60;99.90
25640;DHT22;13497;48.322;16.204;2022-10-22T04:16:10;9.70;99.90
25640;DHT22;13497;48.322;16.204;2022-10-22T04:18:36;9.50;99.90
25640;DHT22;13497;48.322;16.204;2022-10-22T04:21:02;9.60;99.90
25640;DHT22;13497;48.322;16.204;2022-10-22T04:23:28;9.70;99.90
25640;DHT22;13497;48.322;16.204;2022-10-22T04:26:02;9.80;99.90
25640;DHT22;13497;48.322;16.204;2022-10-22T04:28:28;9.90;99.90
25640;DHT22;13497;48.322;16.204;2022-10-22T04:30:54;9.90;99.90
25640;DHT22;13497;48.322;16.204;2022-10-22T04:33:20;10.00;99.90
25640;DHT22;13497;48.322;16.204;2022-10-22T04:35:45;10.00;99.90
25640;DHT22;13497;48.322;16.204;2022-10-22T04:38:11;9.90;99.90
25640;DHT22;13497;48.322;16.204;2022-10-22T04:40:37;9.90;99.90
25640;DHT22;13497;48.322;16.204;2022-10-22T04:43:02;9.90;99.90
25640;DHT22;13497;48.322;16.204;2022-10-22T04:45:28;9.90;99.90
25640;DHT22;13497;48.322;16.204;2022-10-22T04:47:53;10.00;99.90
25640;DHT22;13497;48.322;16.204;2022-10-22T04:50:19;10.00;99.90
25640;DHT22;13497;48.322;16.204;2022-10-22T04:52:45;10.00;99.90
25640;DHT22;13497;48.322;16.204;2022-10-22T04:55:10;10.00;99.90
25640;DHT22;13497;48.322;16.204;2022-10-22T04:57:36;10.10;99.90
25640;DHT22;13497;48.322;16.204;2022-10-22T05:00:03;10.00;99.90
25640;DHT22;13497;48.322;16.204;2022-10-22T05:02:29;10.00;99.90
25640;DHT22;13497;48.322;16.204;2022-10-22T05:04:54;10.00;99.90
25640;DHT22;13497;48.322;16.204;2022-10-22T05:07:20;9.80;99.90
25640;DHT22;13497;48.322;16.204;2022-10-22T05:09:45;9.70;99.90
25640;DHT22;13497;48.322;16.204;2022-10-22T05:12:11;9.60;99.90
25640;DHT22;13497;48.322;16.204;2022-10-22T05:14:37;9.50;99.90
25640;DHT22;13497;48.322;16.204;2022-10-22T05:17:02;9.50;99.90
25640;DHT22;13497;48.322;16.204;2022-10-22T05:19:29;9.50;99.90
25640;DHT22;13497;48.322;16.204;2022-10-22T05:21:57;9.50;99.90
25640;DHT22;13497;48.322;16.204;2022-10-22T05:24:24;9.40;99.90
25640;DHT22;13497;48.322;16.204;2022-10-22T05:26:51;9.30;99.90
25640;DHT22;13497;48.322;16.204;2022-10-22T05:29:17;9.30;99.90
25640;DHT22;13497;48.322;16.204;2022-10-22T05:31:43;9.20;99.90
25640;DHT22;13497;48.322;16.204;2022-10-22T05:34:08;9.20;99.90
25640;DHT22;13497;48.322;16.204;2022-10-22T05:36:34;9.30;99.90
25640;DHT22;13497;48.322;16.204;2022-10-22T05:39:00;9.50;99.90
25640;DHT22;13497;48.322;16.204;2022-10-22T05:41:27;9.50;99.90
25640;DHT22;13497;48.322;16.204;2022-10-22T05:43:58;9.50;99.90
25640;DHT22;13497;48.322;16.204;2022-10-22T05:46:26;9.50;99.90
25640;DHT22;13497;48.322;16.204;2022-10-22T05:48:56;9.50;99.90
25640;DHT22;13497;48.322;16.204;2022-10-22T05:51:23;9.60;99.90
25640;DHT22;13497;48.322;16.204;2022-10-22T05:53:52;9.60;99.90
25640;DHT22;13497;48.322;16.204;2022-10-22T05:56:19;9.70;99.90
25640;DHT22;13497;48.322;16.204;2022-10-22T05:58:44;9.70;99.90
25640;DHT22;13497;48.322;16.204;2022-10-22T06:01:18;9.80;99.90
25640;DHT22;13497;48.322;16.204;2022-10-22T06:03:45;9.80;99.90
25640;DHT22;13497;48.322;16.204;2022-10-22T06:06:16;9.90;99.90
25640;DHT22;13497;48.322;16.204;2022-10-22T06:08:43;10.00;99.90
25640;DHT22;13497;48.322;16.204;2022-10-22T06:11:09;10.10;99.90
25640;DHT22;13497;48.322;16.204;2022-10-22T06:13:35;10.20;99.90
25640;DHT22;13497;48.322;16.204;2022-10-22T06:16:00;10.20;99.90
25640;DHT22;13497;48.322;16.204;2022-10-22T06:18:26;10.20;99.90
25640;DHT22;13497;48.322;16.204;2022-10-22T06:20:51;10.10;99.90
25640;DHT22;13497;48.322;16.204;2022-10-22T06:23:17;10.10;99.90
25640;DHT22;13497;48.322;16.204;2022-10-22T06:25:43;10.10;99.90
25640;DHT22;13497;48.322;16.204;2022-10-22T06:28:09;10.20;99.90
25640;DHT22;13497;48.322;16.204;2022-10-22T06:30:37;10.40;99.90
25640;DHT22;13497;48.322;16.204;2022-10-22T06:33:03;10.50;99.90
25640;DHT22;13497;48.322;16.204;2022-10-22T06:35:28;10.70;99.90
25640;DHT22;13497;48.322;16.204;2022-10-22T06:37:54;10.80;99.90
25640;DHT22;13497;48.322;16.204;2022-10-22T06:40:20;10.90;99.90
25640;DHT22;13497;48.322;16.204;2022-10-22T06:42:46;11.10;99.90
25640;DHT22;13497;48.322;16.204;2022-10-22T06:45:11;11.10;99.90
25640;DHT22;13497;48.322;16.204;2022-10-22T06:47:37;11.00;99.90
25640;DHT22;13497;48.322;16.204;2022-10-22T06:50:03;11.00;99.90
25640;DHT22;13497;48.322;16.204;2022-10-22T06:52:28;11.10;99.90
25640;DHT22;13497;48.322;16.204;2022-10-22T06:54:54;11.10;99.90
25640;DHT22;13497;48.322;16.204;2022-10-22T06:57:20;11.10;99.90
25640;DHT22;13497;48.322;16.204;2022-10-22T06:59:46;11.10;99.90
25640;DHT22;13497;48.322;16.204;2022-10-22T07:02:11;11.20;99.90
25640;DHT22;13497;48.322;16.204;2022-10-22T07:04:37;11.30;99.90
25640;DHT22;13497;48.322;16.204;2022-10-22T07:07:03;11.10;99.90
25640;DHT22;13497;48.322;16.204;2022-10-22T07:09:28;11.00;99.90
25640;DHT22;13497;48.322;16.204;2022-10-22T07:11:54;11.00;99.90
25640;DHT22;13497;48.322;16.204;2022-10-22T07:14:19;11.00;99.90
25640;DHT22;13497;48.322;16.204;2022-10-22T07:16:45;11.00;99.90
25640;DHT22;13497;48.322;16.204;2022-10-22T07:19:11;11.00;99.90
25640;DHT22;13497;48.322;16.204;2022-10-22T07:21:37;10.90;99.90
25640;DHT22;13497;48.322;16.204;2022-10-22T07:24:03;10.80;99.90
25640;DHT22;13497;48.322;16.204;2022-10-22T07:26:29;10.70;99.90
25640;DHT22;13497;48.322;16.204;2022-10-22T07:28:55;10.70;99.90
25640;DHT22;13497;48.322;16.204;2022-10-22T07:31:21;10.60;99.90
25640;DHT22;13497;48.322;16.204;2022-10-22T07:33:47;10.60;99.90
25640;DHT22;13497;48.322;16.204;2022-10-22T07:36:14;10.60;99.90
25640;DHT22;13497;48.322;16.204;2022-10-22T07:38:52;10.80;99.90
25640;DHT22;13497;48.322;16.204;2022-10-22T07:41:17;10.80;99.90
25640;DHT22;13497;48.322;16.204;2022-10-22T07:43:43;10.90;99.90
25640;DHT22;13497;48.322;16.204;2022-10-22T07:46:09;10.90;99.90
25640;DHT22;13497;48.322;16.204;2022-10-22T07:48:35;11.00;99.90
25640;DHT22;13497;48.322;16.204;2022-10-22T07:51:01;11.10;99.90
25640;DHT22;13497;48.322;16.204;2022-10-22T07:53:27;11.10;99.90
25640;DHT22;13497;48.322;16.204;2022-10-22T07:55:52;11.30;99.90
25640;DHT22;13497;48.322;16.204;2022-10-22T07:58:19;11.30;99.90
25640;DHT22;13497;48.322;16.204;2022-10-22T08:00:45;11.40;99.90
25640;DHT22;13497;48.322;16.204;2022-10-22T08:03:11;11.40;99.90
25640;DHT22;13497;48.322;16.204;2022-10-22T08:05:37;11.50;99.90
25640;DHT22;13497;48.322;16.204;2022-10-22T08:08:08;11.60;99.90
25640;DHT22;13497;48.322;16.204;2022-10-22T08:10:34;11.70;99.90
25640;DHT22;13497;48.322;16.204;2022-10-22T08:13:00;11.70;99.90
25640;DHT22;13497;48.322;16.204;2022-10-22T08:15:26;11.70;99.90
25640;DHT22;13497;48.322;16.204;2022-10-22T08:17:52;11.70;99.90
25640;DHT22;13497;48.322;16.204;2022-10-22T08:20:18;11.70;99.90
25640;DHT22;13497;48.322;16.204;2022-10-22T08:22:44;11.80;99.90
25640;DHT22;13497;48.322;16.204;2022-10-22T08:25:11;11.70;99.90
25640;DHT22;13497;48.322;16.204;2022-10-22T08:27:37;11.50;99.90
25640;DHT22;13497;48.322;16.204;2022-10-22T08:30:04;11.40;99.90
25640;DHT22;13497;48.322;16.204;2022-10-22T08:32:30;11.30;99.90
25640;DHT22;13497;48.322;16.204;2022-10-22T08:34:56;11.40;99.90
25640;DHT22;13497;48.322;16.204;2022-10-22T08:37:21;11.40;99.90
25640;DHT22;13497;48.322;16.204;2022-10-22T08:39:47;11.30;99.90
25640;DHT22;13497;48.322;16.204;2022-10-22T08:45:23;11.40;99.90
25640;DHT22;13497;48.322;16.204;2022-10-22T08:50:49;11.30;99.90
25640;DHT22;13497;48.322;16.204;2022-10-22T08:53:20;11.40;99.90
25640;DHT22;13497;48.322;16.204;2022-10-22T08:55:47;11.50;99.90
25640;DHT22;13497;48.322;16.204;2022-10-22T09:01:06;11.80;99.90
25640;DHT22;13497;48.322;16.204;2022-10-22T09:04:24;11.70;99.90
25640;DHT22;13497;48.322;16.204;2022-10-22T09:06:26;11.80;99.90
25640;DHT22;13497;48.322;16.204;2022-10-22T09:08:53;11.90;99.90
25640;DHT22;13497;48.322;16.204;2022-10-22T09:11:32;12.00;99.90
25640;DHT22;13497;48.322;16.204;2022-10-22T09:13:59;12.10;99.90
25640;DHT22;13497;48.322;16.204;2022-10-22T09:22:36;12.20;99.90
25640;DHT22;13497;48.322;16.204;2022-10-22T09:24:43;12.40;99.90
25640;DHT22;13497;48.322;16.204;2022-10-22T09:27:17;12.40;99.90
25640;DHT22;13497;48.322;16.204;2022-10-22T09:29:44;12.50;99.90
25640;DHT22;13497;48.322;16.204;2022-10-22T09:32:11;12.50;99.90
25640;DHT22;13497;48.322;16.204;2022-10-22T09:34:37;12.60;99.90
25640;DHT22;13497;48.322;16.204;2022-10-22T09:37:06;12.70;99.90
25640;DHT22;13497;48.322;16.204;2022-10-22T09:39:42;12.70;99.90
25640;DHT22;13497;48.322;16.204;2022-10-22T09:42:09;12.70;99.90
25640;DHT22;13497;48.322;16.204;2022-10-22T09:44:36;12.70;99.90
25640;DHT22;13497;48.322;16.204;2022-10-22T09:47:04;12.80;99.90
25640;DHT22;13497;48.322;16.204;2022-10-22T09:49:34;12.90;99.90
25640;DHT22;13497;48.322;16.204;2022-10-22T09:52:01;12.90;99.90
25640;DHT22;13497;48.322;16.204;2022-10-22T09:54:40;13.00;99.90
25640;DHT22;13497;48.322;16.204;2022-10-22T09:57:19;13.00;99.90
25640;DHT22;13497;48.322;16.204;2022-10-22T09:59:48;13.00;99.90
25640;DHT22;13497;48.322;16.204;2022-10-22T10:02:19;12.90;99.90
25640;DHT22;13497;48.322;16.204;2022-10-22T10:04:48;13.00;99.90
25640;DHT22;13497;48.322;16.204;2022-10-22T10:07:22;12.90;99.90
25640;DHT22;13497;48.322;16.204;2022-10-22T10:09:48;12.90;99.90
25640;DHT22;13497;48.322;16.204;2022-10-22T10:28:13;13.30;99.90
25640;DHT22;13497;48.322;16.204;2022-10-22T10:36:42;13.60;99.90
25640;DHT22;13497;48.322;16.204;2022-10-22T10:39:14;13.60;99.90
25640;DHT22;13497;48.322;16.204;2022-10-22T10:44:33;13.70;99.90
25640;DHT22;13497;48.322;16.204;2022-10-22T10:50:29;13.70;99.90
25640;DHT22;13497;48.322;16.204;2022-10-22T10:53:09;13.80;99.90
25640;DHT22;13497;48.322;16.204;2022-10-22T10:56:03;13.90;99.90
25640;DHT22;13497;48.322;16.204;2022-10-22T10:58:41;14.00;99.90
25640;DHT22;13497;48.322;16.204;2022-10-22T11:01:23;14.20;99.90
25640;DHT22;13497;48.322;16.204;2022-10-22T11:06:56;14.50;99.90
25640;DHT22;13497;48.322;16.204;2022-10-22T11:09:26;14.70;99.90
25640;DHT22;13497;48.322;16.204;2022-10-22T11:11:58;14.70;99.90
25640;DHT22;13497;48.322;16.204;2022-10-22T11:14:38;14.90;99.90
25640;DHT22;13497;48.322;16.204;2022-10-22T11:17:16;14.90;99.90
25640;DHT22;13497;48.322;16.204;2022-10-22T11:20:01;15.00;99.90
25640;DHT22;13497;48.322;16.204;2022-10-22T11:28:31;15.40;99.90
25640;DHT22;13497;48.322;16.204;2022-10-22T11:30:37;15.50;99.90
25640;DHT22;13497;48.322;16.204;2022-10-22T11:33:10;15.50;99.90
25640;DHT22;13497;48.322;16.204;2022-10-22T11:35:40;15.40;99.90
25640;DHT22;13497;48.322;16.204;2022-10-22T11:38:07;15.30;99.90
25640;DHT22;13497;48.322;16.204;2022-10-22T11:40:50;15.30;99.90
25640;DHT22;13497;48.322;16.204;2022-10-22T11:49:14;15.40;99.90
25640;DHT22;13497;48.322;16.204;2022-10-22T11:51:42;15.40;99.90
25640;DHT22;13497;48.322;16.204;2022-10-22T11:54:29;15.40;99.90
25640;DHT22;13497;48.322;16.204;2022-10-22T11:59:47;15.30;99.90
25640;DHT22;13497;48.322;16.204;2022-10-22T12:02:39;15.30;99.90
25640;DHT22;13497;48.322;16.204;2022-10-22T12:07:59;15.50;99.90
25640;DHT22;13497;48.322;16.204;2022-10-22T12:11:14;15.60;99.90
25640;DHT22;13497;48.322;16.204;2022-10-22T12:13:24;15.60;99.90
25640;DHT22;13497;48.322;16.204;2022-10-22T12:15:53;15.60;99.90
25640;DHT22;13497;48.322;16.204;2022-10-22T12:18:24;15.70;99.90
25640;DHT22;13497;48.322;16.204;2022-10-22T12:20:52;15.70;99.90
25640;DHT22;13497;48.322;16.204;2022-10-22T12:23:18;15.70;99.90
25640;DHT22;13497;48.322;16.204;2022-10-22T12:25:45;15.70;99.90
25640;DHT22;13497;48.322;16.204;2022-10-22T12:28:12;15.70;99.90
25640;DHT22;13497;48.322;16.204;2022-10-22T12:30:37;15.70;99.90
25640;DHT22;13497;48.322;16.204;2022-10-22T12:33:06;15.70;99.90
25640;DHT22;13497;48.322;16.204;2022-10-22T12:35:34;15.80;99.90
25640;DHT22;13497;48.322;16.204;2022-10-22T12:38:23;15.80;99.90
25640;DHT22;13497;48.322;16.204;2022-10-22T12:40:53;15.70;99.90
25640;DHT22;13497;48.322;16.204;2022-10-22T12:43:29;15.70;99.90
25640;DHT22;13497;48.322;16.204;2022-10-22T12:45:55;15.70;99.90
25640;DHT22;13497;48.322;16.204;2022-10-22T12:48:27;15.60;99.90
25640;DHT22;13497;48.322;16.204;2022-10-22T12:50:57;15.60;99.90
25640;DHT22;13497;48.322;16.204;2022-10-22T12:53:29;15.50;99.90
25640;DHT22;13497;48.322;16.204;2022-10-22T12:56:06;15.50;99.90
25640;DHT22;13497;48.322;16.204;2022-10-22T13:01:05;15.30;99.90
25640;DHT22;13497;48.322;16.204;2022-10-22T13:03:37;15.30;99.90
25640;DHT22;13497;48.322;16.204;2022-10-22T13:06:25;15.20;99.90
25640;DHT22;13497;48.322;16.204;2022-10-22T13:11:39;15.20;99.90
25640;DHT22;13497;48.322;16.204;2022-10-22T13:14:27;15.20;99.90
25640;DHT22;13497;48.322;16.204;2022-10-22T13:22:37;15.20;99.90
25640;DHT22;13497;48.322;16.204;2022-10-22T13:27:49;15.20;99.90
25640;DHT22;13497;48.322;16.204;2022-10-22T13:32:51;15.20;99.90
25640;DHT22;13497;48.322;16.204;2022-10-22T13:35:20;15.20;99.90
25640;DHT22;13497;48.322;16.204;2022-10-22T13:37:48;15.30;99.90
25640;DHT22;13497;48.322;16.204;2022-10-22T13:40:14;15.30;99.90
25640;DHT22;13497;48.322;16.204;2022-10-22T13:42:39;15.20;99.90
25640;DHT22;13497;48.322;16.204;2022-10-22T13:45:06;15.30;99.90
25640;DHT22;13497;48.322;16.204;2022-10-22T13:47:34;15.30;99.90
25640;DHT22;13497;48.322;16.204;2022-10-22T13:50:06;15.30;99.90
25640;DHT22;13497;48.322;16.204;2022-10-22T13:52:45;15.30;99.90
25640;DHT22;13497;48.322;16.204;2022-10-22T13:55:20;15.20;99.90
25640;DHT22;13497;48.322;16.204;2022-10-22T13:57:48;15.30;99.90
25640;DHT22;13497;48.322;16.204;2022-10-22T14:00:19;15.30;99.90
25640;DHT22;13497;48.322;16.204;2022-10-22T14:02:47;15.30;99.90
25640;DHT22;13497;48.322;16.204;2022-10-22T14:05:16;15.30;99.90
25640;DHT22;13497;48.322;16.204;2022-10-22T14:07:43;15.30;99.90
25640;DHT22;13497;48.322;16.204;2022-10-22T14:10:21;15.30;99.90
25640;DHT22;13497;48.322;16.204;2022-10-22T14:12:47;15.30;99.90
25640;DHT22;13497;48.322;16.204;2022-10-22T14:15:15;15.30;99.90
25640;DHT22;13497;48.322;16.204;2022-10-22T14:17:45;15.30;99.90
25640;DHT22;13497;48.322;16.204;2022-10-22T14:20:20;15.20;99.90
25640;DHT22;13497;48.322;16.204;2022-10-22T14:22:47;15.20;99.90
25640;DHT22;13497;48.322;16.204;2022-10-22T14:25:18;15.20;99.90
25640;DHT22;13497;48.322;16.204;2022-10-22T14:27:45;15.20;99.90
25640;DHT22;13497;48.322;16.204;2022-10-22T14:30:29;15.20;99.90
25640;DHT22;13497;48.322;16.204;2022-10-22T14:32:57;15.20;99.90
25640;DHT22;13497;48.322;16.204;2022-10-22T14:35:26;15.20;99.90
25640;DHT22;13497;48.322;16.204;2022-10-22T14:37:53;15.20;99.90
25640;DHT22;13497;48.322;16.204;2022-10-22T14:40:20;15.10;99.90
25640;DHT22;13497;48.322;16.204;2022-10-22T14:42:47;15.10;99.90
25640;DHT22;13497;48.322;16.204;2022-10-22T14:45:31;15.10;99.90
25640;DHT22;13497;48.322;16.204;2022-10-22T14:47:56;15.00;99.90
25640;DHT22;13497;48.322;16.204;2022-10-22T14:50:23;15.00;99.90
25640;DHT22;13497;48.322;16.204;2022-10-22T14:52:49;15.00;99.90
25640;DHT22;13497;48.322;16.204;2022-10-22T14:55:16;15.00;99.90
25640;DHT22;13497;48.322;16.204;2022-10-22T14:57:43;14.90;99.90
25640;DHT22;13497;48.322;16.204;2022-10-22T15:00:16;14.90;99.90
25640;DHT22;13497;48.322;16.204;2022-10-22T15:02:43;14.90;99.90
25640;DHT22;13497;48.322;16.204;2022-10-22T15:05:09;14.90;99.90
25640;DHT22;13497;48.322;16.204;2022-10-22T15:07:35;14.80;99.90
25640;DHT22;13497;48.322;16.204;2022-10-22T15:10:02;14.80;99.90
25640;DHT22;13497;48.322;16.204;2022-10-22T15:12:28;14.80;99.90
25640;DHT22;13497;48.322;16.204;2022-10-22T15:14:57;14.90;99.90
25640;DHT22;13497;48.322;16.204;2022-10-22T15:17:23;14.90;99.90
25640;DHT22;13497;48.322;16.204;2022-10-22T15:19:49;14.80;99.90
25640;DHT22;13497;48.322;16.204;2022-10-22T15:22:14;14.80;99.90
25640;DHT22;13497;48.322;16.204;2022-10-22T15:24:40;14.80;99.90
25640;DHT22;13497;48.322;16.204;2022-10-22T15:27:10;14.80;99.90
25640;DHT22;13497;48.322;16.204;2022-10-22T15:29:40;14.80;99.90
25640;DHT22;13497;48.322;16.204;2022-10-22T15:32:07;14.80;99.90
25640;DHT22;13497;48.322;16.204;2022-10-22T15:34:36;14.80;99.90
25640;DHT22;13497;48.322;16.204;2022-10-22T15:37:04;14.80;99.90
25640;DHT22;13497;48.322;16.204;2022-10-22T15:39:30;14.80;99.90
25640;DHT22;13497;48.322;16.204;2022-10-22T15:41:58;14.80;99.90
25640;DHT22;13497;48.322;16.204;2022-10-22T15:44:28;14.80;99.90
25640;DHT22;13497;48.322;16.204;2022-10-22T15:46:55;14.80;99.90
25640;DHT22;13497;48.322;16.204;2022-10-22T15:49:25;14.80;99.90
25640;DHT22;13497;48.322;16.204;2022-10-22T15:51:52;14.80;99.90
25640;DHT22;13497;48.322;16.204;2022-10-22T15:54:25;14.80;99.90
25640;DHT22;13497;48.322;16.204;2022-10-22T15:56:53;14.70;99.90
25640;DHT22;13497;48.322;16.204;2022-10-22T15:59:19;14.70;99.90
25640;DHT22;13497;48.322;16.204;2022-10-22T16:01:45;14.70;99.90
25640;DHT22;13497;48.322;16.204;2022-10-22T16:04:11;14.60;99.90
25640;DHT22;13497;48.322;16.204;2022-10-22T16:06:44;14.60;99.90
25640;DHT22;13497;48.322;16.204;2022-10-22T16:09:12;14.60;99.90
25640;DHT22;13497;48.322;16.204;2022-10-22T16:11:39;14.60;99.90
25640;DHT22;13497;48.322;16.204;2022-10-22T16:14:06;14.60;99.90
25640;DHT22;13497;48.322;16.204;2022-10-22T16:16:34;14.60;99.90
25640;DHT22;13497;48.322;16.204;2022-10-22T16:19:00;14.60;99.90
25640;DHT22;13497;48.322;16.204;2022-10-22T16:21:26;14.50;99.90
25640;DHT22;13497;48.322;16.204;2022-10-22T16:23:52;14.40;99.90
25640;DHT22;13497;48.322;16.204;2022-10-22T16:26:19;14.40;99.90
25640;DHT22;13497;48.322;16.204;2022-10-22T16:28:47;14.30;99.90
25640;DHT22;13497;48.322;16.204;2022-10-22T16:31:15;14.20;99.90
25640;DHT22;13497;48.322;16.204;2022-10-22T16:33:41;14.20;99.90
25640;DHT22;13497;48.322;16.204;2022-10-22T16:36:08;14.10;99.90
25640;DHT22;13497;48.322;16.204;2022-10-22T16:38:34;14.00;99.90
25640;DHT22;13497;48.322;16.204;2022-10-22T16:41:11;14.00;99.90
25640;DHT22;13497;48.322;16.204;2022-10-22T16:43:39;13.90;99.90
25640;DHT22;13497;48.322;16.204;2022-10-22T16:46:06;13.80;99.90
25640;DHT22;13497;48.322;16.204;2022-10-22T16:48:32;13.80;99.90
25640;DHT22;13497;48.322;16.204;2022-10-22T16:51:04;13.90;99.90
25640;DHT22;13497;48.322;16.204;2022-10-22T16:53:31;13.90;99.90
25640;DHT22;13497;48.322;16.204;2022-10-22T16:55:56;13.80;99.90
25640;DHT22;13497;48.322;16.204;2022-10-22T16:58:22;13.80;99.90
25640;DHT22;13497;48.322;16.204;2022-10-22T17:00:48;13.70;99.90
25640;DHT22;13497;48.322;16.204;2022-10-22T17:03:17;13.60;99.90
25640;DHT22;13497;48.322;16.204;2022-10-22T17:05:42;13.50;99.90
25640;DHT22;13497;48.322;16.204;2022-10-22T17:08:10;13.40;99.90